Time;durP1;ratioP1;P1;durP2;ratioP2;P2;SDS_P1;SDS_P2;PMS_P1;PMS_P2;Temp;Humidity;BMP_temperature;BMP_pressure;BME280_temperature;BME280_humidity;BME280_pressure;Samples;Min_cycle;Max_cycle;Signal;HPM_P1;HPM_P2
2022/11/20 00:00:17;;;;;;;109.20;57.60;;;;;;;-4.95;81.46;98561.86;86827;1279;22676;-70
2022/11/20 00:02:38;;;;;;;110.20;59.20;;;;;;;-4.97;81.57;98565.27;86936;1281;99193;-71
2022/11/20 00:04:39;;;;;;;118.00;59.90;;;;;;;-4.99;81.49;98569.20;87051;1278;26534;-70
2022/11/20 00:06:40;;;;;;;117.80;60.50;;;;;;;-4.98;81.43;98566.48;87028;1285;22481;-69
2022/11/20 00:08:42;;;;;;;108.80;57.20;;;;;;;-5.00;81.52;98565.26;86816;1280;99495;-71
2022/11/20 00:10:42;;;;;;;110.30;55.70;;;;;;;-5.01;81.52;98566.97;86940;1284;22776;-71
2022/11/20 00:12:43;;;;;;;105.80;56.00;;;;;;;-5.00;81.47;98564.39;86894;1285;22581;-71
2022/11/20 00:14:44;;;;;;;112.20;57.30;;;;;;;-5.00;81.50;98560.30;86826;1287;98000;-71
2022/11/20 00:16:46;;;;;;;118.20;57.90;;;;;;;-5.00;81.64;98555.33;86915;1283;22562;-70
2022/11/20 00:18:48;;;;;;;104.50;53.90;;;;;;;-5.01;81.40;98552.73;86891;1282;22707;-71
2022/11/20 00:20:49;;;;;;;103.10;53.20;;;;;;;-5.06;81.49;98551.50;86603;1280;99604;-69
2022/11/20 00:22:50;;;;;;;112.90;56.10;;;;;;;-5.08;81.29;98552.52;86782;1287;22774;-73
2022/11/20 00:24:51;;;;;;;;;;;;;;;-5.09;81.41;98554.40;86837;1277;22462;-71
2022/11/20 00:26:52;;;;;;;114.10;59.10;;;;;;;-5.11;81.50;98550.60;86861;1280;83873;-72
2022/11/20 00:28:56;;;;;;;110.00;61.10;;;;;;;-5.11;81.44;98550.42;86921;1285;22470;-71
2022/11/20 00:31:02;;;;;;;109.40;57.90;;;;;;;-5.13;81.51;98543.91;86807;1280;24249;-71
2022/11/20 00:33:03;;;;;;;108.10;57.10;;;;;;;-5.15;81.41;98545.63;86943;1282;97852;-71
2022/11/20 00:35:05;;;;;;;115.90;61.50;;;;;;;-5.27;81.30;98535.08;86965;1280;22515;-70
2022/11/20 00:37:06;;;;;;;109.40;55.70;;;;;;;-5.25;81.31;98551.86;86749;1280;22462;-71
2022/11/20 00:39:07;;;;;;;100.40;57.10;;;;;;;-5.29;81.39;98552.70;86841;1277;99317;-72
2022/11/20 00:41:11;;;;;;;111.80;58.90;;;;;;;-5.32;81.39;98553.86;86886;1309;22627;-71
2022/11/20 00:43:13;;;;;;;107.30;57.60;;;;;;;-5.35;81.37;98554.52;87125;1284;24244;-70
2022/11/20 00:45:14;;;;;;;107.30;58.90;;;;;;;-5.37;81.29;98551.77;86928;1278;98482;-71
2022/11/20 00:47:15;;;;;;;104.70;55.70;;;;;;;-5.38;81.40;98552.45;87224;1275;22715;-70
2022/11/20 00:49:16;;;;;;;105.00;56.90;;;;;;;-5.37;81.34;98552.63;87138;1275;22532;-72
2022/11/20 00:51:20;;;;;;;104.20;55.40;;;;;;;-5.39;81.38;98550.04;86838;1280;99093;-72
2022/11/20 00:53:22;;;;;;;103.80;55.30;;;;;;;-5.45;81.26;98549.31;86824;1289;25240;-70
2022/11/20 00:55:23;;;;;;;98.80;54.80;;;;;;;-5.49;81.11;98548.58;87123;1286;98910;-71
2022/11/20 00:57:24;;;;;;;107.70;54.60;;;;;;;-5.53;81.10;98545.98;87005;1278;22444;-70
2022/11/20 00:59:25;;;;;;;106.70;54.60;;;;;;;-5.52;81.26;98537.27;87219;1275;23040;-72
2022/11/20 01:01:29;;;;;;;98.50;54.20;;;;;;;-5.50;81.55;98531.27;87070;1282;99121;-72
2022/11/20 01:03:38;;;;;;;107.00;54.00;;;;;;;-5.48;81.31;98527.03;87217;1283;22455;-73
2022/11/20 01:05:39;;;;;;;102.00;55.60;;;;;;;-5.45;81.49;98525.67;86986;1281;22533;-71
2022/11/20 01:07:41;;;;;;;99.00;57.00;;;;;;;-5.44;81.46;98524.34;86904;1284;99238;-70
2022/11/20 01:09:42;;;;;;;108.20;57.10;;;;;;;-5.45;81.42;98524.82;87064;1275;22544;-71
2022/11/20 01:11:44;;;;;;;;;;;;;;;-5.45;81.50;98522.76;87077;1285;22830;-71
2022/11/20 01:13:46;;;;;;;108.90;63.00;;;;;;;-5.46;81.45;98523.79;87042;1282;85466;-70
2022/11/20 01:15:47;;;;;;;109.00;58.30;;;;;;;-5.47;81.40;98530.27;87184;1275;24314;-71
2022/11/20 01:17:48;;;;;;;111.10;59.60;;;;;;;-5.49;81.39;98531.47;86997;1285;23101;-72
2022/11/20 01:19:50;;;;;;;113.30;58.20;;;;;;;-5.48;81.49;98530.28;87074;1275;99420;-70
2022/11/20 01:21:53;;;;;;;103.90;59.00;;;;;;;-5.46;81.59;98521.55;86808;1280;22589;-72
2022/11/20 01:23:55;;;;;;;112.80;59.40;;;;;;;-5.45;81.45;98517.64;86738;1287;22452;-70
2022/11/20 01:25:56;;;;;;;102.20;56.30;;;;;;;-5.42;81.59;98515.77;86948;1284;98092;-71
2022/11/20 01:27:57;;;;;;;105.70;55.80;;;;;;;-5.40;81.49;98515.79;87151;1285;22474;-72
2022/11/20 01:29:58;;;;;;;101.40;57.60;;;;;;;-5.41;81.54;98509.12;86977;1282;22469;-70
2022/11/20 01:31:59;;;;;;;118.30;59.60;;;;;;;-5.41;81.66;98512.53;86895;1294;99195;-71
2022/11/20 01:34:07;;;;;;;104.30;55.50;;;;;;;-5.40;81.49;98508.27;86913;1294;22721;-71
2022/11/20 01:36:09;;;;;;;111.30;56.40;;;;;;;-5.39;81.57;98508.60;87011;1277;23082;-71
2022/11/20 01:38:10;;;;;;;103.50;55.20;;;;;;;-5.41;81.60;98514.41;86743;1287;98270;-71
2022/11/20 01:40:11;;;;;;;106.00;56.90;;;;;;;-5.45;81.44;98514.73;87015;1277;22493;-72
2022/11/20 01:44:48;;;;;;;106.50;58.00;;;;;;;-5.52;81.52;98513.64;87008;1277;99289;-71
2022/11/20 01:47:04;;;;;;;105.80;58.50;;;;;;;-5.53;81.26;98510.04;87073;1283;22432;-71
2022/11/20 01:49:21;;;;;;;105.10;56.50;;;;;;;-5.54;81.50;98507.80;87048;1286;22616;-72
2022/11/20 01:51:51;;;;;;;106.30;56.10;;;;;;;-5.55;81.36;98505.23;86926;1284;98828;-71
2022/11/20 01:53:55;;;;;;;110.20;61.30;;;;;;;-5.59;81.40;98505.54;86967;1284;25524;-70
2022/11/20 01:56:01;;;;;;;100.10;54.00;;;;;;;-5.64;81.26;98505.48;86824;1280;99507;-72
2022/11/20 01:58:04;;;;;;;103.50;54.70;;;;;;;-5.66;81.26;98515.58;87091;1288;25264;-70
2022/11/20 02:00:09;;;;;;;98.30;51.10;;;;;;;-5.67;81.29;98513.50;87287;1280;22576;-70
2022/11/20 02:02:10;;;;;;;99.70;50.00;;;;;;;-5.70;81.27;98510.58;86858;1276;98449;-69
2022/11/20 02:04:13;;;;;;;107.10;54.70;;;;;;;-5.74;81.26;98508.14;87050;1283;24235;-72
2022/11/20 02:06:24;;;;;;;107.30;55.00;;;;;;;-5.82;81.14;98506.86;87258;1284;23675;-71
2022/11/20 02:08:25;;;;;;;94.10;53.00;;;;;;;-5.83;81.13;98517.63;86765;1287;99833;-71
2022/11/20 02:10:29;;;;;;;107.10;55.60;;;;;;;-5.85;81.08;98511.45;86872;1290;213355;-72
2022/11/20 02:14:50;;;;;;;117.80;60.80;;;;;;;-5.88;81.25;98514.68;87048;1280;99598;-71
2022/11/20 02:16:53;;;;;;;104.70;57.70;;;;;;;-5.87;81.29;98515.54;86952;1285;22460;-70
2022/11/20 02:18:59;;;;;;;108.20;58.70;;;;;;;-5.85;81.37;98516.75;86844;1283;23031;-70
2022/11/20 02:21:35;;;;;;;108.50;57.70;;;;;;;-5.84;81.36;98525.15;87442;1281;99071;-72
2022/11/20 02:23:43;;;;;;;103.30;55.90;;;;;;;-5.83;81.36;98523.63;86765;1286;22480;-70
2022/11/20 02:25:47;;;;;;;111.90;62.30;;;;;;;-5.83;81.40;98525.15;86543;1289;98419;-71
2022/11/20 02:27:48;;;;;;;114.50;62.50;;;;;;;-5.82;81.47;98530.98;86558;1289;22532;-70
2022/11/20 02:29:52;;;;;;;108.50;56.50;;;;;;;-5.82;81.35;98534.75;86645;1299;23434;-72
2022/11/20 02:31:56;;;;;;;112.80;59.70;;;;;;;-5.85;81.17;98531.30;86534;1289;98244;-71
2022/11/20 02:33:57;;;;;;;102.90;54.50;;;;;;;-5.84;81.46;98527.04;86646;1287;22772;-72
2022/11/20 02:35:59;;;;;;;114.30;58.60;;;;;;;-5.83;81.41;98529.44;86580;1299;22444;-70
2022/11/20 02:38:02;;;;;;;108.10;54.80;;;;;;;-5.85;81.46;98528.39;86635;1299;97827;-71
2022/11/20 02:40:03;;;;;;;105.80;57.00;;;;;;;-5.87;81.26;98526.83;86706;1290;22877;-71
2022/11/20 02:42:05;;;;;;;106.70;56.10;;;;;;;-5.89;81.34;98526.29;86695;1290;22526;-71
2022/11/20 02:44:06;;;;;;;;;;;;;;;-5.90;81.21;98531.23;86828;1290;98868;-70
2022/11/20 02:46:08;;;;;;;114.90;64.20;;;;;;;-5.98;81.20;98533.91;86832;1290;22718;-70
2022/11/20 02:48:10;;;;;;;117.40;64.80;;;;;;;-6.07;81.20;98529.04;86826;1289;23262;-71
2022/11/20 02:50:11;;;;;;;107.80;62.30;;;;;;;-6.06;81.23;98534.19;86691;1290;99092;-71
2022/11/20 02:52:12;;;;;;;112.40;61.80;;;;;;;-6.08;81.18;98531.08;86966;1287;22497;-71
2022/11/20 02:54:13;;;;;;;98.20;56.80;;;;;;;-6.09;81.36;98531.07;86709;1313;23881;-70
2022/11/20 02:56:15;;;;;;;100.70;54.10;;;;;;;-6.11;81.17;98533.11;86584;1297;98824;-71
2022/11/20 02:58:19;;;;;;;106.90;55.90;;;;;;;-6.12;81.28;98525.91;86780;1287;22542;-71
2022/11/20 03:00:20;;;;;;;109.70;54.90;;;;;;;-6.12;81.29;98525.05;86842;1291;24240;-72
2022/11/20 03:02:21;;;;;;;102.20;54.20;;;;;;;-6.14;81.35;98524.69;86950;1280;98697;-74
2022/11/20 03:04:22;;;;;;;99.10;53.70;;;;;;;-6.14;81.28;98517.51;87023;1284;22952;-69
2022/11/20 03:06:23;;;;;;;109.20;57.30;;;;;;;-6.14;81.27;98517.16;87086;1276;22909;-74
2022/11/20 03:08:24;;;;;;;102.40;55.20;;;;;;;-6.18;81.32;98508.74;86867;1296;99493;-70
2022/11/20 03:10:25;;;;;;;98.00;54.40;;;;;;;-6.17;81.20;98512.87;87033;1285;23066;-71
2022/11/20 03:12:26;;;;;;;101.90;56.80;;;;;;;-6.21;81.13;98516.05;86957;1281;22754;-70
2022/11/20 03:14:28;;;;;;;101.80;53.70;;;;;;;-6.26;81.12;98512.75;87000;1291;98854;-69
2022/11/20 03:16:30;;;;;;;;;;;;;;;-6.32;81.10;98511.84;86946;1286;22462;-71
2022/11/20 03:18:32;;;;;;;100.60;58.50;;;;;;;-6.39;80.93;98515.69;86902;1286;22561;-72
2022/11/20 03:20:33;;;;;;;109.70;59.30;;;;;;;-6.43;80.95;98520.43;86938;1290;99242;-71
2022/11/20 03:22:36;;;;;;;115.00;59.70;;;;;;;-6.44;81.00;98519.90;87087;1285;23028;-72
2022/11/20 03:24:38;;;;;;;105.30;56.90;;;;;;;-6.45;81.14;98513.90;87292;1292;23284;-71
2022/11/20 03:26:39;;;;;;;101.70;53.90;;;;;;;-6.45;81.15;98515.95;86975;1285;98997;-70
2022/11/20 03:28:42;;;;;;;102.10;54.60;;;;;;;-6.44;81.11;98513.22;87020;1283;25924;-71
2022/11/20 03:30:44;;;;;;;96.30;53.90;;;;;;;-6.45;81.23;98509.28;86884;1287;25264;-72
2022/11/20 03:32:45;;;;;;;106.40;55.70;;;;;;;-6.45;81.15;98507.41;86854;1287;98854;-71
2022/11/20 03:34:46;;;;;;;102.50;54.10;;;;;;;-6.46;81.22;98504.84;87041;1283;22487;-71
2022/11/20 03:36:47;;;;;;;103.90;54.20;;;;;;;-6.45;81.31;98505.02;87105;1278;22550;-72
2022/11/20 03:38:48;;;;;;;101.00;53.60;;;;;;;-6.44;81.27;98504.17;86956;1278;98105;-71
2022/11/20 03:40:50;;;;;;;99.00;52.60;;;;;;;-6.46;81.28;98505.50;86978;1283;22480;-73
2022/11/20 03:42:51;;;;;;;109.10;55.00;;;;;;;-6.51;81.08;98502.05;86964;1287;25365;-71
2022/11/20 03:44:52;;;;;;;102.10;57.20;;;;;;;-6.51;81.13;98501.17;86879;1280;99020;-70
2022/11/20 03:46:54;;;;;;;108.70;59.30;;;;;;;-6.51;81.20;98497.42;87008;1280;23452;-72
2022/11/20 03:48:57;;;;;;;106.20;58.00;;;;;;;-6.49;81.22;98492.83;87007;1283;22546;-70
2022/11/20 03:51:10;;;;;;;107.20;57.30;;;;;;;-6.47;81.35;98493.36;86999;1285;99179;-73
2022/11/20 03:53:11;;;;;;;98.30;58.70;;;;;;;-6.44;81.38;98494.93;86940;1283;22515;-69
2022/11/20 03:55:11;;;;;;;104.00;56.80;;;;;;;-6.44;81.43;98492.20;86968;1277;23922;-70
2022/11/20 03:57:13;;;;;;;106.20;56.50;;;;;;;-6.38;81.44;98492.61;86865;1284;99238;-71
2022/11/20 03:59:14;;;;;;;105.30;55.00;;;;;;;-6.35;81.55;98490.95;86974;1283;22547;-70
2022/11/20 04:01:27;;;;;;;101.90;55.70;;;;;;;-6.32;81.51;98490.80;86945;1287;22516;-72
2022/11/20 04:03:30;;;;;;;112.50;57.80;;;;;;;-6.30;81.51;98490.82;87017;1275;23035;-72
2022/11/20 04:05:33;;;;;;;;;;;;;;;-6.30;81.44;98495.10;87009;1285;24148;-70
2022/11/20 04:07:34;;;;;;;104.20;60.30;;;;;;;-6.34;81.24;98495.23;87028;1282;84013;-72
2022/11/20 04:09:35;;;;;;;103.90;57.60;;;;;;;-6.38;81.26;98495.88;87006;1282;22464;-71
2022/11/20 04:11:39;;;;;;;101.90;53.50;;;;;;;-6.39;81.22;98497.40;87037;1290;22667;-69
2022/11/20 04:13:41;;;;;;;99.30;52.20;;;;;;;-6.40;81.29;98498.92;86810;1287;99021;-71
2022/11/20 04:15:42;;;;;;;100.30;52.30;;;;;;;-6.41;81.21;98496.18;86866;1285;22655;-70
2022/11/20 04:17:43;;;;;;;94.70;49.70;;;;;;;-6.41;81.20;98492.24;86938;1283;22531;-71
2022/11/20 04:19:44;;;;;;;86.70;47.10;;;;;;;-6.41;81.33;98488.15;86670;1287;99605;-71
2022/11/20 04:21:46;;;;;;;107.00;51.50;;;;;;;-6.38;81.42;98486.81;86984;1292;22649;-72
2022/11/20 04:23:47;;;;;;;;;;;;;;;-6.37;81.37;98484.60;87009;1286;24853;-71
2022/11/20 04:25:50;;;;;;;99.20;55.50;;;;;;;-6.38;81.42;98480.66;87178;1289;83848;-70
2022/11/20 04:27:51;;;;;;;98.00;52.40;;;;;;;-6.39;81.25;98480.80;86987;1280;22512;-71
2022/11/20 04:29:52;;;;;;;93.10;46.70;;;;;;;-6.40;81.18;98482.68;87063;1284;23491;-72
2022/11/20 04:31:53;;;;;;;102.50;48.80;;;;;;;-6.41;81.34;98481.14;87016;1291;98104;-71
2022/11/20 04:33:54;;;;;;;;;;;;;;;-6.43;81.16;98481.63;86866;1287;22426;-71
2022/11/20 04:36:00;;;;;;;103.90;52.90;;;;;;;-6.46;81.12;98484.83;87419;1309;22576;-72
2022/11/20 04:38:02;;;;;;;92.00;50.80;;;;;;;-6.48;81.12;98485.48;87591;1284;97908;-73
2022/11/20 04:40:04;;;;;;;92.30;51.50;;;;;;;-6.49;81.17;98482.23;87760;1293;22638;-70
2022/11/20 04:44:36;;;;;;;97.80;49.90;;;;;;;-6.49;81.17;98479.50;86897;1290;98864;-72
2022/11/20 04:46:40;;;;;;;92.00;48.40;;;;;;;-6.51;81.25;98479.98;87143;1283;22478;-70
2022/11/20 04:48:42;;;;;;;93.60;48.20;;;;;;;-6.54;81.21;98474.49;87299;1283;22496;-71
2022/11/20 04:50:42;;;;;;;;;;;;;;;-6.55;81.18;98470.71;87171;1282;97671;-70
2022/11/20 04:52:43;;;;;;;87.90;48.80;;;;;;;-6.61;81.12;98468.42;87072;1286;22546;-71
2022/11/20 04:54:44;;;;;;;92.20;49.50;;;;;;;-6.68;81.00;98468.52;87056;1292;22504;-71
2022/11/20 04:56:49;;;;;;;87.90;43.80;;;;;;;-6.70;81.05;98466.60;86973;1283;98865;-70
2022/11/20 04:58:51;;;;;;;88.60;47.30;;;;;;;-6.71;81.03;98465.90;87223;1291;22496;-71
2022/11/20 05:00:52;;;;;;;89.90;47.00;;;;;;;-6.70;81.06;98460.79;87009;1288;22500;-71
2022/11/20 05:02:53;;;;;;;89.30;48.70;;;;;;;-6.72;81.09;98458.56;86766;1293;97863;-70
2022/11/20 05:04:54;;;;;;;81.30;44.60;;;;;;;-6.74;81.01;98463.32;87111;1282;22685;-71
2022/11/20 05:06:55;;;;;;;92.50;45.00;;;;;;;-6.77;80.98;98463.45;87033;1284;24209;-69
2022/11/20 05:08:57;;;;;;;85.00;44.20;;;;;;;-6.81;81.04;98468.52;86821;1283;99492;-70
2022/11/20 05:11:01;;;;;;;90.00;46.20;;;;;;;-6.81;81.14;98472.10;86831;1283;25414;-72
2022/11/20 05:13:02;;;;;;;95.10;47.30;;;;;;;-6.79;81.13;98470.77;86969;1290;25564;-70
2022/11/20 05:15:04;;;;;;;104.00;49.50;;;;;;;-6.77;81.22;98470.79;86853;1287;99969;-70
2022/11/20 05:17:04;;;;;;;;;;;;;;;-6.77;81.21;98467.71;86964;1281;25360;-69
2022/11/20 05:19:05;;;;;;;116.10;62.60;;;;;;;-6.80;81.15;98469.04;86977;1280;25958;-71
2022/11/20 05:21:10;;;;;;;111.90;53.40;;;;;;;-6.80;81.12;98465.61;86813;1286;98239;-72
2022/11/20 05:23:11;;;;;;;109.90;55.10;;;;;;;-6.79;81.21;98463.08;86813;1288;25382;-69
2022/11/20 05:25:13;;;;;;;104.60;53.70;;;;;;;-6.83;81.04;98465.75;86985;1282;22631;-70
2022/11/20 05:27:13;;;;;;;99.90;48.90;;;;;;;-6.92;80.93;98460.86;87000;1284;98509;-71
2022/11/20 05:29:14;;;;;;;106.10;52.50;;;;;;;-6.90;80.99;98466.53;87035;1285;25354;-69
2022/11/20 05:31:18;;;;;;;98.40;51.90;;;;;;;-6.87;81.09;98462.27;87026;1287;22568;-70
2022/11/20 05:33:19;;;;;;;98.00;49.40;;;;;;;-6.87;81.14;98461.79;86869;1283;99226;-72
2022/11/20 05:35:20;;;;;;;89.30;46.90;;;;;;;-6.85;81.22;98458.73;86943;1286;22491;-72
2022/11/20 05:37:21;;;;;;;93.80;48.10;;;;;;;-6.82;81.21;98460.99;87036;1285;22423;-70
2022/11/20 05:39:22;;;;;;;;;;;;;;;-6.79;81.30;98458.46;86813;1279;97655;-69
2022/11/20 05:41:24;;;;;;;101.40;55.00;;;;;;;-6.76;81.36;98458.33;86715;1287;22687;-71
2022/11/20 05:43:24;;;;;;;94.00;47.20;;;;;;;-6.72;81.46;98459.40;86934;1289;23976;-69
2022/11/20 05:45:25;;;;;;;95.50;50.90;;;;;;;-6.70;81.50;98455.15;86776;1283;98944;-71
2022/11/20 05:47:28;;;;;;;99.10;51.00;;;;;;;-6.66;81.53;98458.63;86923;1283;25260;-70
2022/11/20 05:49:29;;;;;;;94.60;50.20;;;;;;;-6.62;81.50;98457.13;86874;1288;22501;-71
2022/11/20 05:51:30;;;;;;;93.40;47.90;;;;;;;-6.61;81.52;98455.62;86888;1283;99557;-71
2022/11/20 05:53:32;;;;;;;105.90;52.90;;;;;;;-6.59;81.49;98448.11;87091;1289;23334;-72
2022/11/20 05:55:33;;;;;;;94.60;52.60;;;;;;;-6.57;81.49;98445.75;86877;1291;99802;-72
2022/11/20 05:57:34;;;;;;;102.00;53.50;;;;;;;-6.53;81.57;98444.09;86858;1284;24360;-69
2022/11/20 05:59:35;;;;;;;;;;;;;;;-6.50;81.59;98443.27;86788;1289;22414;-70
2022/11/20 06:01:36;;;;;;;94.60;56.40;;;;;;;-6.51;81.41;98444.44;86944;1281;85153;-70
2022/11/20 06:03:39;;;;;;;102.20;51.50;;;;;;;-6.53;81.40;98446.48;87084;1291;22511;-72
2022/11/20 06:05:40;;;;;;;95.30;53.30;;;;;;;-6.53;81.23;98447.84;87002;1278;22507;-72
2022/11/20 06:07:41;;;;;;;97.30;49.30;;;;;;;-6.50;81.55;98448.21;87082;1291;98554;-73
2022/11/20 06:09:42;;;;;;;99.20;51.20;;;;;;;-6.47;81.49;98451.66;87191;1291;22438;-73
2022/11/20 06:11:43;;;;;;;96.70;52.20;;;;;;;-6.45;81.61;98445.70;87145;1282;23808;-72
2022/11/20 06:13:45;;;;;;;101.00;47.90;;;;;;;-6.46;81.44;98445.19;87138;1289;98045;-72
2022/11/20 06:15:53;;;;;;;89.50;47.50;;;;;;;-6.47;81.30;98447.56;87045;1286;22712;-71
2022/11/20 06:17:55;;;;;;;89.40;47.70;;;;;;;-6.50;81.25;98447.52;87004;1292;25267;-72
2022/11/20 06:19:56;;;;;;;89.30;46.80;;;;;;;-6.52;81.29;98452.12;86969;1292;98576;-72
2022/11/20 06:21:57;;;;;;;95.00;46.40;;;;;;;-6.51;81.38;98448.20;86996;1291;22514;-72
2022/11/20 06:23:58;;;;;;;84.80;48.10;;;;;;;-6.49;81.35;98448.58;86950;1295;24263;-72
2022/11/20 06:26:07;;;;;;;90.80;48.00;;;;;;;-6.47;81.47;98454.05;87068;1276;98481;-73
2022/11/20 06:28:09;;;;;;;95.90;46.40;;;;;;;-6.45;81.52;98451.00;86984;1300;22502;-72
2022/11/20 06:30:11;;;;;;;95.90;48.90;;;;;;;-6.44;81.52;98447.26;87001;1295;24275;-72
2022/11/20 06:32:12;;;;;;;95.80;49.90;;;;;;;-6.43;81.43;98444.71;86918;1293;99868;-71
2022/11/20 06:34:13;;;;;;;96.10;49.00;;;;;;;-6.42;81.45;98446.09;87129;1298;22472;-71
2022/11/20 06:36:16;;;;;;;81.00;45.30;;;;;;;-6.45;81.32;98446.90;87006;1284;22516;-71
2022/11/20 06:38:17;;;;;;;99.70;49.00;;;;;;;-6.47;81.29;98444.15;87386;1283;99775;-73
2022/11/20 06:40:18;;;;;;;90.10;46.60;;;;;;;-6.45;81.31;98440.58;87302;1295;22506;-72
2022/11/20 06:42:19;;;;;;;99.00;50.40;;;;;;;-6.41;81.56;98438.23;87139;1285;22732;-73
2022/11/20 06:44:20;;;;;;;91.90;46.70;;;;;;;-6.37;81.57;98431.95;87074;1275;97869;-72
2022/11/20 06:46:22;;;;;;;83.70;46.60;;;;;;;-6.33;81.65;98433.02;87133;1283;22914;-72
2022/11/20 06:48:23;;;;;;;;;;;;;;;-6.29;81.60;98430.48;87151;1289;24276;-73
2022/11/20 06:50:24;;;;;;;102.80;49.40;;;;;;;-6.26;81.57;98427.79;86962;1285;85205;-71
2022/11/20 06:52:25;;;;;;;91.50;50.40;;;;;;;-6.25;81.67;98423.86;86955;1293;22510;-73
2022/11/20 06:54:26;;;;;;;89.70;49.40;;;;;;;-6.25;81.54;98423.88;87069;1285;22472;-74
2022/11/20 06:56:28;;;;;;;97.00;48.60;;;;;;;-6.27;81.50;98424.19;86949;1285;99041;-73
2022/11/20 06:58:31;;;;;;;96.10;47.10;;;;;;;-6.28;81.51;98431.02;87010;1281;22564;-71
2022/11/20 07:00:32;;;;;;;95.80;46.20;;;;;;;-6.29;81.49;98433.56;87051;1286;24265;-73
2022/11/20 07:02:33;;;;;;;93.80;44.40;;;;;;;-6.30;81.64;98431.16;86920;1283;98129;-72
2022/11/20 07:04:34;;;;;;;98.60;47.30;;;;;;;-6.30;81.63;98429.80;87048;1283;22474;-73
2022/11/20 07:06:36;;;;;;;92.00;49.20;;;;;;;-6.28;81.62;98425.71;86833;1297;22484;-73
2022/11/20 07:08:37;;;;;;;;;;;;;;;-6.30;81.74;98419.88;86907;1283;98996;-74
2022/11/20 07:10:38;;;;;;;101.70;51.90;;;;;;;-6.32;81.65;98413.54;86920;1285;22564;-72
2022/11/20 07:12:39;;;;;;;103.60;52.20;;;;;;;-6.21;81.76;98422.02;86971;1288;22458;-74
2022/11/20 07:14:40;;;;;;;120.70;54.80;;;;;;;-6.16;81.85;98426.52;87002;1288;99298;-74
2022/11/20 07:16:41;;;;;;;132.60;62.80;;;;;;;-6.12;81.91;98426.73;86843;1291;22579;-72
2022/11/20 07:18:42;;;;;;;138.80;65.60;;;;;;;-6.06;81.96;98431.23;87017;1283;22500;-72
2022/11/20 07:20:43;;;;;;;172.90;71.70;;;;;;;-5.99;82.15;98429.77;86927;1287;98152;-72
2022/11/20 07:22:44;;;;;;;151.70;71.40;;;;;;;-5.93;82.14;98433.35;86981;1291;25985;-72
2022/11/20 07:24:45;;;;;;;243.30;70.50;;;;;;;-5.87;82.09;98434.27;86920;1287;22603;-72
2022/11/20 07:26:48;;;;;;;183.40;75.80;;;;;;;-5.80;82.19;98436.23;86852;1295;99258;-73
2022/11/20 07:28:50;;;;;;;220.60;75.20;;;;;;;-5.74;82.27;98435.77;86409;1288;22514;-71
2022/11/20 07:30:52;;;;;;;430.20;79.30;;;;;;;-5.67;82.44;98432.39;86996;1283;22555;-73
2022/11/20 07:32:55;;;;;;;213.00;81.70;;;;;;;-5.61;82.45;98430.73;87083;1283;98301;-72
2022/11/20 07:34:56;;;;;;;202.20;72.40;;;;;;;-5.54;82.41;98431.29;87159;1283;22506;-78
2022/11/20 07:36:57;;;;;;;204.10;76.60;;;;;;;-5.49;82.50;98428.77;86586;1285;26595;-77
2022/11/20 07:38:58;;;;;;;161.50;75.30;;;;;;;-5.43;82.59;98435.81;86408;1291;100067;-76
2022/11/20 07:41:01;;;;;;;165.80;72.80;;;;;;;-5.40;82.57;98434.64;86534;1283;22692;-78
2022/11/20 07:43:02;;;;;;;154.30;68.30;;;;;;;-5.37;82.52;98444.60;86368;1286;22502;-76
2022/11/20 07:45:03;;;;;;;148.60;69.60;;;;;;;-5.36;82.50;98450.44;86532;1285;97948;-77
2022/11/20 07:47:05;;;;;;;157.70;74.00;;;;;;;-5.33;82.58;98455.75;86770;1289;25612;-77
2022/11/20 07:49:05;;;;;;;172.50;82.60;;;;;;;-5.29;82.57;98457.48;86583;1284;22483;-80
2022/11/20 07:51:07;;;;;;;160.60;77.20;;;;;;;-5.24;82.53;98458.20;86433;1285;99008;-78
2022/11/20 07:53:08;;;;;;;177.20;85.10;;;;;;;-5.22;82.65;98458.39;86756;1282;22530;-77
2022/11/20 07:55:10;;;;;;;158.70;73.40;;;;;;;-5.16;82.64;98455.85;86551;1284;22507;-76
2022/11/20 07:57:11;;;;;;;149.50;72.40;;;;;;;-5.12;82.85;98457.42;86741;1285;99847;-80
2022/11/20 07:59:12;;;;;;;158.40;79.80;;;;;;;-5.09;82.69;98457.11;86910;1294;22565;-81
2022/11/20 08:01:13;;;;;;;138.80;71.40;;;;;;;-5.04;82.92;98455.92;87005;1293;22550;-78
2022/11/20 08:03:14;;;;;;;137.30;66.20;;;;;;;-4.98;82.60;98458.54;86814;1315;99404;-82
2022/11/20 08:05:16;;;;;;;139.30;66.50;;;;;;;-4.95;82.82;98458.20;87115;1292;22600;-80
2022/11/20 08:07:17;;;;;;;134.70;68.60;;;;;;;-5.00;82.55;98459.55;86774;1292;22846;-75
2022/11/20 08:09:18;;;;;;;156.90;75.90;;;;;;;-5.00;82.60;98458.17;86658;1287;100189;-74
2022/11/20 08:15:59;;;;;;;142.10;76.60;;;;;;;-4.80;82.90;98463.25;86634;1289;22513;-75
2022/11/20 08:18:05;;;;;;;151.20;78.00;;;;;;;-4.74;82.79;98463.28;86740;1289;24231;-75
2022/11/20 08:20:07;;;;;;;153.80;75.60;;;;;;;-4.70;82.79;98462.77;86822;1283;100132;-74
2022/11/20 08:22:08;;;;;;;139.40;74.90;;;;;;;-4.63;82.98;98464.20;86733;1286;25271;-75
2022/11/20 08:24:10;;;;;;;133.00;68.10;;;;;;;-4.54;82.91;98457.89;86729;1282;23351;-75
2022/11/20 08:26:12;;;;;;;143.80;75.40;;;;;;;-4.53;82.80;98457.54;86550;1293;100164;-74
2022/11/20 08:28:13;;;;;;;151.60;80.50;;;;;;;-4.53;82.73;98452.05;86565;1307;22521;-74
2022/11/20 08:30:14;;;;;;;157.40;82.00;;;;;;;-4.46;82.72;98451.91;86436;1286;22501;-73
2022/11/20 08:32:15;;;;;;;142.70;73.30;;;;;;;-4.36;82.91;98453.48;86569;1286;99152;-74
2022/11/20 08:34:16;;;;;;;136.10;72.10;;;;;;;-4.25;82.93;98450.79;86621;1285;22476;-75
2022/11/20 08:36:18;;;;;;;140.00;75.60;;;;;;;-4.12;83.01;98448.92;86512;1306;22519;-74
2022/11/20 08:38:19;;;;;;;169.10;81.90;;;;;;;-4.06;82.93;98446.86;86556;1286;98218;-75
2022/11/20 08:40:20;;;;;;;150.40;79.40;;;;;;;-4.01;82.91;98447.40;86597;1283;23017;-75
2022/11/20 08:42:21;;;;;;;141.80;76.80;;;;;;;-3.95;83.06;98445.35;86577;1292;22886;-73
2022/11/20 08:44:22;;;;;;;159.40;81.40;;;;;;;-3.89;83.06;98441.75;86491;1288;99753;-73
2022/11/20 08:46:26;;;;;;;157.10;82.20;;;;;;;-3.82;83.06;98440.71;86557;1285;22780;-73
2022/11/20 08:48:27;;;;;;;172.80;83.30;;;;;;;-3.73;83.03;98440.55;86617;1294;22624;-74
2022/11/20 08:50:31;;;;;;;164.80;86.90;;;;;;;-3.68;82.84;98431.13;86566;1286;98112;-74
2022/11/20 08:52:32;;;;;;;164.20;87.00;;;;;;;-3.63;82.93;98427.00;86677;1283;22484;-73
2022/11/20 08:54:33;;;;;;;180.00;88.50;;;;;;;-3.62;82.82;98424.25;86692;1283;23492;-75
2022/11/20 08:56:34;;;;;;;169.00;87.40;;;;;;;-3.62;82.62;98425.29;86699;1284;98162;-73
2022/11/20 08:58:35;;;;;;;;;;;;;;;-3.64;82.76;98427.69;86550;1287;22500;-74
2022/11/20 09:00:36;;;;;;;148.50;75.10;;;;;;;-3.70;82.51;98421.85;86541;1278;24913;-74
2022/11/20 09:02:37;;;;;;;168.20;80.00;;;;;;;-3.72;82.70;98424.41;86460;1285;99669;-73
2022/11/20 09:04:40;;;;;;;;;;;;;;;-3.72;82.67;98422.35;86445;1297;22461;-74
2022/11/20 09:06:45;;;;;;;144.80;75.00;;;;;;;-3.74;82.71;98424.77;86609;1283;23149;-74
2022/11/20 09:08:46;;;;;;;168.90;82.90;;;;;;;-3.77;82.60;98421.85;86497;1284;99347;-74
2022/11/20 09:10:51;;;;;;;173.00;83.60;;;;;;;-3.73;82.97;98417.21;86442;1286;22480;-74
2022/11/20 09:12:54;;;;;;;167.10;86.50;;;;;;;-3.72;82.82;98410.70;86565;1283;22532;-75
2022/11/20 09:14:57;;;;;;;171.30;87.00;;;;;;;-3.61;82.92;98415.66;86304;1288;99926;-74
2022/11/20 09:16:59;;;;;;;168.30;82.10;;;;;;;-3.54;83.08;98416.70;86545;1284;22737;-73
2022/11/20 09:19:00;;;;;;;167.30;85.70;;;;;;;-3.49;83.02;98416.85;86629;1274;25545;-73
2022/11/20 09:21:04;;;;;;;170.20;88.00;;;;;;;-3.47;83.05;98417.20;86323;1293;99343;-72
2022/11/20 09:23:05;;;;;;;160.30;80.90;;;;;;;-3.38;83.16;98420.46;86393;1286;25376;-74
2022/11/20 09:25:06;;;;;;;;;;;;;;;-3.32;83.03;98416.67;86460;1285;23540;-71
2022/11/20 09:27:07;;;;;;;160.80;82.20;;;;;;;-3.26;83.23;98416.48;86401;1290;85128;-72
2022/11/20 09:29:08;;;;;;;142.10;78.90;;;;;;;-3.23;82.96;98419.58;86399;1286;22513;-73
2022/11/20 09:31:15;;;;;;;;;;;;;;;-3.22;83.08;98422.66;86395;1283;27044;-75
2022/11/20 09:33:17;;;;;;;152.90;78.20;;;;;;;-3.23;82.83;98423.35;86503;1283;85344;-73